createdAt,value
2023-04-20T00:00:22.750Z,97484.56
2023-04-20T00:02:49.635Z,97476.38
2023-04-20T00:05:16.452Z,97476.81
2023-04-20T00:07:43.087Z,97476.81
2023-04-20T00:10:09.849Z,97474.44
2023-04-20T00:12:36.418Z,97471.31
2023-04-20T00:15:03.390Z,97475.81
2023-04-20T00:17:29.949Z,97466.53
2023-04-20T00:19:56.715Z,97464.00
2023-04-20T00:22:23.182Z,97463.69
2023-04-20T00:24:49.647Z,97459.31
2023-04-20T00:27:16.094Z,97455.78
2023-04-20T00:29:42.587Z,97445.06
2023-04-20T00:32:09.063Z,97454.66
2023-04-20T00:34:36.008Z,97448.16
2023-04-20T00:37:02.496Z,97452.41
2023-04-20T00:39:29.021Z,97455.78
2023-04-20T00:42:03.463Z,97450.97
2023-04-20T00:44:29.911Z,97451.25
2023-04-20T00:46:57.469Z,97448.44
2023-04-20T00:49:27.353Z,97440.81
2023-04-20T00:51:53.880Z,97442.81
2023-04-20T00:54:20.832Z,97439.28
2023-04-20T00:56:48.610Z,97437.72
2023-04-20T00:59:15.222Z,97440.13
2023-04-20T01:01:42.611Z,97439.97
2023-04-20T01:04:09.542Z,97438.84
2023-04-20T01:06:36.296Z,97430.94
2023-04-20T01:09:03.009Z,97427.84
2023-04-20T01:11:29.509Z,97433.91
2023-04-20T01:13:55.960Z,97429.81
2023-04-20T01:16:23.187Z,97425.88
2023-04-20T01:18:51.034Z,97427.97
2023-04-20T01:21:18.666Z,97423.63
2023-04-20T01:23:46.082Z,97432.06
2023-04-20T01:26:14.082Z,97430.09
2023-04-20T01:28:41.682Z,97427.84
2023-04-20T01:31:08.828Z,97422.75
2023-04-20T01:33:35.539Z,97423.03
2023-04-20T01:36:02.139Z,97422.16
2023-04-20T01:38:30.913Z,97416.81
2023-04-20T01:40:59.873Z,97425.00
2023-04-20T01:43:27.616Z,97423.88
2023-04-20T01:45:54.066Z,97425.44
2023-04-20T01:48:20.576Z,97415.44
2023-04-20T01:50:50.743Z,97418.53
2023-04-20T01:53:17.640Z,97419.38
2023-04-20T01:55:46.937Z,97428.28
2023-04-20T01:58:13.633Z,97413.03
2023-04-20T02:00:40.230Z,97414.44
2023-04-20T02:03:06.896Z,97407.22
2023-04-20T02:05:33.492Z,97409.34
2023-04-20T02:07:59.938Z,97410.63
2023-04-20T02:10:26.457Z,97410.91
2023-04-20T02:12:52.998Z,97409.50
2023-04-20T02:15:19.494Z,97412.00
2023-04-20T02:17:52.198Z,97407.66
2023-04-20T02:20:22.803Z,97414.84
2023-04-20T02:22:49.478Z,97407.78
2023-04-20T02:25:16.031Z,97406.22
2023-04-20T02:27:43.107Z,97410.03
2023-04-20T02:30:12.507Z,97417.09
2023-04-20T02:32:41.880Z,97404.97
2023-04-20T02:35:08.986Z,97408.22
2023-04-20T02:37:35.528Z,97410.06
2023-04-20T02:40:04.951Z,97415.44
2023-04-20T02:42:31.550Z,97406.66
2023-04-20T02:44:59.511Z,97416.81
2023-04-20T02:47:26.094Z,97410.63
2023-04-20T02:49:54.057Z,97409.50
2023-04-20T02:52:20.678Z,97413.59
2023-04-20T02:54:47.322Z,97413.72
2023-04-20T02:57:13.981Z,97407.78
2023-04-20T02:59:40.709Z,97405.00
2023-04-20T03:02:37.016Z,97408.66
2023-04-20T03:05:04.514Z,97396.78
2023-04-20T03:07:39.304Z,97397.38
2023-04-20T03:10:07.563Z,97397.94
2023-04-20T03:12:49.981Z,97397.94
2023-04-20T03:15:22.768Z,97400.88
2023-04-20T03:18:00.581Z,97405.97
2023-04-20T03:20:27.355Z,97409.47
2023-04-20T03:22:53.922Z,97412.03
2023-04-20T03:25:23.597Z,97405.56
2023-04-20T03:28:00.758Z,97403.16
2023-04-20T03:30:28.207Z,97408.91
2023-04-20T03:33:05.822Z,97411.47
2023-04-20T03:35:32.651Z,97406.38
2023-04-20T03:37:59.118Z,97401.88
2023-04-20T03:40:25.755Z,97396.50
2023-04-20T03:42:53.076Z,97401.88
2023-04-20T03:45:20.815Z,97411.34
2023-04-20T03:47:50.695Z,97408.66
2023-04-20T03:50:17.646Z,97410.03
2023-04-20T03:52:44.271Z,97415.97
2023-04-20T03:55:11.242Z,97421.78
2023-04-20T03:57:44.473Z,97420.47
2023-04-20T04:00:12.471Z,97421.63
2023-04-20T04:02:44.816Z,97429.25
2023-04-20T04:05:11.928Z,97423.19
2023-04-20T04:07:38.519Z,97428.69
2023-04-20T04:10:05.909Z,97424.75
2023-04-20T04:12:33.588Z,97433.50
2023-04-20T04:15:00.275Z,97430.97
2023-04-20T04:17:30.969Z,97430.09
2023-04-20T04:19:59.809Z,97426.72
2023-04-20T04:22:27.228Z,97421.91
2023-04-20T04:25:15.120Z,97428.00
2023-04-20T04:27:43.644Z,97429.25
2023-04-20T04:30:11.228Z,97432.63
2023-04-20T04:32:38.068Z,97433.47
2023-04-20T04:35:05.569Z,97432.63
2023-04-20T04:37:32.759Z,97428.69
2023-04-20T04:39:59.257Z,97426.72
2023-04-20T04:42:34.849Z,97431.22
2023-04-20T04:45:04.667Z,97436.59
2023-04-20T04:47:36.485Z,97436.03
2023-04-20T04:50:07.181Z,97436.31
2023-04-20T04:52:33.982Z,97437.31
2023-04-20T04:55:00.524Z,97440.38
2023-04-20T04:57:27.352Z,97447.19
2023-04-20T04:59:54.158Z,97450.84
2023-04-20T05:02:20.889Z,97451.13
2023-04-20T05:04:47.469Z,97450.69
2023-04-20T05:07:15.190Z,97454.94
2023-04-20T05:09:41.728Z,97461.72
2023-04-20T05:12:08.298Z,97460.03
2023-04-20T05:14:35.303Z,97458.63
2023-04-20T05:17:02.116Z,97462.13
2023-04-20T05:19:28.650Z,97472.44
2023-04-20T05:21:55.114Z,97468.63
2023-04-20T05:24:21.584Z,97474.41
2023-04-20T05:26:48.111Z,97470.47
2023-04-20T05:29:16.000Z,97467.91
2023-04-20T05:31:42.846Z,97465.66
2023-04-20T05:34:09.331Z,97477.53
2023-04-20T05:36:35.801Z,97476.13
2023-04-20T05:39:02.352Z,97474.16
2023-04-20T05:41:28.864Z,97473.28
2023-04-20T05:43:56.305Z,97470.44
2023-04-20T05:46:23.201Z,97468.41
2023-04-20T05:48:50.181Z,97480.47
2023-04-20T05:51:16.776Z,97474.84
2023-04-20T05:53:43.238Z,97477.06
2023-04-20T05:56:09.710Z,97479.91
2023-04-20T05:58:37.570Z,97478.22
2023-04-20T06:01:04.606Z,97469.47
2023-04-20T06:03:31.340Z,97474.91
2023-04-20T06:05:58.086Z,97473.16
2023-04-20T06:08:24.851Z,97466.25
2023-04-20T06:10:55.860Z,97469.97
2023-04-20T06:13:22.328Z,97464.91
2023-04-20T06:15:48.865Z,97474.91
2023-04-20T06:18:15.432Z,97475.50
2023-04-20T06:20:45.327Z,97478.16
2023-04-20T06:23:11.956Z,97473.16
2023-04-20T06:25:38.700Z,97473.28
2023-04-20T06:28:05.659Z,97472.72
2023-04-20T06:30:34.984Z,97477.16
2023-04-20T06:33:01.964Z,97473.06
2023-04-20T06:35:28.895Z,97477.72
2023-04-20T06:37:58.392Z,97475.56
2023-04-20T06:40:28.633Z,97493.25
2023-04-20T06:42:55.151Z,97476.97
2023-04-20T06:45:21.618Z,97481.75
2023-04-20T06:47:48.230Z,97475.84
2023-04-20T06:50:15.005Z,97480.66
2023-04-20T06:52:41.565Z,97479.59
2023-04-20T06:55:08.449Z,97473.81
2023-04-20T06:57:35.396Z,97487.06
2023-04-20T07:00:01.885Z,97480.28
2023-04-20T07:02:28.490Z,97479.28
2023-04-20T07:05:00.616Z,97475.53
2023-04-20T07:07:27.273Z,97487.38
2023-04-20T07:09:53.735Z,97481.28
2023-04-20T07:12:20.377Z,97482.81
2023-04-20T07:14:46.889Z,97487.38
2023-04-20T07:17:13.329Z,97488.72
2023-04-20T07:19:39.776Z,97480.97
2023-04-20T07:22:06.256Z,97484.97
2023-04-20T07:24:32.809Z,97483.25
2023-04-20T07:26:59.259Z,97494.81
2023-04-20T07:29:25.728Z,97496.16
2023-04-20T07:31:52.259Z,97480.59
2023-04-20T07:34:19.211Z,97486.53
2023-04-20T07:36:45.869Z,97493.66
2023-04-20T07:39:12.329Z,97492.75
2023-04-20T07:41:38.986Z,97490.72
2023-04-20T07:44:05.834Z,97491.31
2023-04-20T07:46:32.444Z,97496.84
2023-04-20T07:48:58.876Z,97486.97
2023-04-20T07:51:26.565Z,97483.66
2023-04-20T07:53:53.001Z,97488.34
2023-04-20T07:56:19.452Z,97490.06
2023-04-20T07:58:46.021Z,97488.38
2023-04-20T08:01:12.507Z,97493.97
2023-04-20T08:03:39.292Z,97488.28
2023-04-20T08:06:06.398Z,97491.06
2023-04-20T08:08:33.085Z,97482.41
2023-04-20T08:10:59.614Z,97488.94
2023-04-20T08:13:27.551Z,97487.09
2023-04-20T08:15:54.185Z,97485.38
2023-04-20T08:18:21.470Z,97480.03
2023-04-20T08:20:48.167Z,97488.16
2023-04-20T08:23:14.696Z,97492.88
2023-04-20T08:25:41.136Z,97482.34
2023-04-20T08:28:11.940Z,97488.78
2023-04-20T08:30:42.005Z,97470.69
2023-04-20T08:33:08.534Z,97479.09
2023-04-20T08:35:35.100Z,97477.19
2023-04-20T08:38:02.253Z,97480.91
2023-04-20T08:40:30.068Z,97469.56
2023-04-20T08:42:56.911Z,97474.63
2023-04-20T08:45:23.528Z,97478.47
2023-04-20T08:47:50.427Z,97474.09
2023-04-20T08:50:17.014Z,97479.38
2023-04-20T08:52:43.503Z,97473.03
2023-04-20T08:55:10.613Z,97483.50
2023-04-20T08:57:37.108Z,97474.78
2023-04-20T09:00:05.648Z,97473.06
2023-04-20T09:02:32.201Z,97475.66
2023-04-20T09:05:04.420Z,97479.00
2023-04-20T09:07:31.052Z,97477.09
2023-04-20T09:09:58.133Z,97485.63
2023-04-20T09:12:24.800Z,97488.91
2023-04-20T09:14:52.046Z,97490.25
2023-04-20T09:17:30.173Z,97475.72
2023-04-20T09:19:56.677Z,97476.03
2023-04-20T09:22:33.237Z,97482.50
2023-04-20T09:25:00.540Z,97485.97
2023-04-20T09:27:27.210Z,97476.28
2023-04-20T09:29:57.966Z,97478.53
2023-04-20T09:32:25.157Z,97482.16
2023-04-20T09:34:51.692Z,97480.19
2023-04-20T09:37:18.199Z,97476.59
2023-04-20T09:39:45.581Z,97475.59
2023-04-20T09:42:13.345Z,97481.41
2023-04-20T09:44:40.197Z,97476.31
2023-04-20T09:47:07.719Z,97473.03
2023-04-20T09:49:34.408Z,97479.00
2023-04-20T09:52:04.530Z,97476.56
2023-04-20T09:54:31.683Z,97471.91
2023-04-20T09:57:02.056Z,97473.81
2023-04-20T09:59:29.765Z,97470.22
2023-04-20T10:01:56.263Z,97469.84
2023-04-20T10:04:23.210Z,97471.56
2023-04-20T10:06:54.922Z,97476.72
2023-04-20T10:09:28.501Z,97471.94
2023-04-20T10:12:05.169Z,97469.91
2023-04-20T10:14:31.718Z,97465.81
2023-04-20T10:17:00.110Z,97478.41
2023-04-20T10:19:43.385Z,97465.56
2023-04-20T10:22:10.823Z,97466.03
2023-04-20T10:24:40.411Z,97473.88
2023-04-20T10:27:16.843Z,97466.28
2023-04-20T10:29:43.345Z,97468.56
2023-04-20T10:32:20.845Z,97463.91
2023-04-20T10:34:47.329Z,97477.00
2023-04-20T10:37:13.931Z,97466.41
2023-04-20T10:39:46.989Z,97464.47
2023-04-20T10:42:14.978Z,97466.41
2023-04-20T10:44:48.944Z,97459.44
2023-04-20T10:47:16.049Z,97461.03
2023-04-20T10:49:42.529Z,97460.28
2023-04-20T10:52:09.691Z,97450.69
2023-04-20T10:54:36.988Z,97454.03
2023-04-20T10:57:03.744Z,97454.84
2023-04-20T10:59:30.417Z,97450.91
2023-04-20T11:01:59.585Z,97452.75
2023-04-20T11:04:29.697Z,97451.97
2023-04-20T11:07:03.945Z,97450.28
2023-04-20T11:09:30.928Z,97445.81
2023-04-20T11:12:04.591Z,97443.44
2023-04-20T11:14:32.041Z,97448.63
2023-04-20T11:16:58.701Z,97445.78
2023-04-20T11:19:29.412Z,97443.56
2023-04-20T11:21:56.284Z,97437.44
2023-04-20T11:24:24.183Z,97433.72
2023-04-20T11:26:51.099Z,97440.88
2023-04-20T11:29:28.115Z,97442.44
2023-04-20T11:31:54.691Z,97442.78
2023-04-20T11:34:21.867Z,97442.09
2023-04-20T11:36:50.554Z,97440.59
2023-04-20T11:39:27.310Z,97445.59
2023-04-20T11:41:54.279Z,97443.53
2023-04-20T11:44:21.263Z,97443.28
2023-04-20T11:46:49.199Z,97445.09
2023-04-20T11:49:21.875Z,97444.16
2023-04-20T11:51:48.390Z,97445.31
2023-04-20T11:54:14.875Z,97445.31
2023-04-20T11:56:45.084Z,97435.94
2023-04-20T11:59:12.255Z,97431.97
2023-04-20T12:01:39.066Z,97442.22
2023-04-20T12:04:05.892Z,97433.59
2023-04-20T12:06:32.907Z,97431.47
2023-04-20T12:09:01.228Z,97425.50
2023-04-20T12:11:27.695Z,97425.16
2023-04-20T12:13:54.506Z,97423.72
2023-04-20T12:16:21.765Z,97428.31
2023-04-20T12:18:48.484Z,97414.03
2023-04-20T12:21:15.200Z,97410.00
2023-04-20T12:23:42.731Z,97406.72
2023-04-20T12:26:09.332Z,97411.38
2023-04-20T12:28:35.925Z,97411.75
2023-04-20T12:31:02.497Z,97412.41
2023-04-20T12:33:29.712Z,97409.56
2023-04-20T12:35:56.163Z,97402.81
2023-04-20T12:38:22.649Z,97403.28
2023-04-20T12:40:49.129Z,97409.75
2023-04-20T12:43:15.987Z,97404.53
2023-04-20T12:45:42.570Z,97405.19
2023-04-20T12:48:09.128Z,97404.19
2023-04-20T12:50:35.691Z,97408.38
2023-04-20T12:53:02.377Z,97403.94
2023-04-20T12:55:28.959Z,97404.50
2023-04-20T12:57:55.388Z,97401.31
2023-04-20T13:00:22.240Z,97403.56
2023-04-20T13:02:48.777Z,97396.63
2023-04-20T13:05:15.920Z,97396.63
2023-04-20T13:07:42.409Z,97396.59
2023-04-20T13:10:09.104Z,97398.72
2023-04-20T13:12:35.946Z,97385.75
2023-04-20T13:15:03.131Z,97391.72
2023-04-20T13:17:29.675Z,97389.66
2023-04-20T13:19:56.147Z,97387.88
2023-04-20T13:22:22.684Z,97387.75
2023-04-20T13:24:49.176Z,97391.84
2023-04-20T13:27:15.634Z,97384.00
2023-04-20T13:29:42.145Z,97392.53
2023-04-20T13:32:08.934Z,97388.97
2023-04-20T13:34:35.658Z,97383.75
2023-04-20T13:37:03.464Z,97387.72
2023-04-20T13:39:29.994Z,97377.59
2023-04-20T13:41:56.891Z,97372.13
2023-04-20T13:44:23.447Z,97375.72
2023-04-20T13:46:49.997Z,97384.25
2023-04-20T13:49:17.145Z,97382.84
2023-04-20T13:51:43.666Z,97378.28
2023-04-20T13:54:10.207Z,97377.28
2023-04-20T13:56:36.655Z,97369.53
2023-04-20T13:59:04.044Z,97370.72
2023-04-20T14:01:31.533Z,97366.59
2023-04-20T14:03:58.452Z,97375.06
2023-04-20T14:06:25.235Z,97367.72
2023-04-20T14:08:51.782Z,97367.44
2023-04-20T14:11:18.383Z,97369.22
2023-04-20T14:13:45.599Z,97356.75
2023-04-20T14:16:14.857Z,97362.53
2023-04-20T14:18:41.407Z,97357.47
2023-04-20T14:21:07.951Z,97354.53
2023-04-20T14:23:34.469Z,97364.81
2023-04-20T14:26:03.353Z,97363.16
2023-04-20T14:28:32.926Z,97361.06
2023-04-20T14:31:00.866Z,97361.66
2023-04-20T14:33:27.980Z,97354.34
2023-04-20T14:35:54.514Z,97364.19
2023-04-20T14:38:20.986Z,97353.28
2023-04-20T14:40:48.365Z,97359.47
2023-04-20T14:43:14.863Z,97347.75
2023-04-20T14:45:41.745Z,97355.09
2023-04-20T14:48:08.365Z,97353.19
2023-04-20T14:50:35.037Z,97350.47
2023-04-20T14:53:01.997Z,97350.13
2023-04-20T14:55:28.771Z,97347.94
2023-04-20T14:57:57.210Z,97353.91
2023-04-20T15:00:24.160Z,97348.75
2023-04-20T15:02:51.460Z,97351.03
2023-04-20T15:05:18.210Z,97344.28
2023-04-20T15:07:45.863Z,97348.69
2023-04-20T15:10:12.500Z,97339.41
2023-04-20T15:12:39.009Z,97348.31
2023-04-20T15:15:05.870Z,97347.88
2023-04-20T15:17:32.431Z,97347.50
2023-04-20T15:19:58.948Z,97350.75
2023-04-20T15:22:25.385Z,97351.16
2023-04-20T15:24:51.897Z,97346.94
2023-04-20T15:27:18.361Z,97344.28
2023-04-20T15:29:44.850Z,97349.88
2023-04-20T15:32:11.386Z,97352.13
2023-04-20T15:34:37.942Z,97345.41
2023-04-20T15:37:04.493Z,97351.94
2023-04-20T15:39:30.952Z,97353.88
2023-04-20T15:41:57.804Z,97349.59
2023-04-20T15:44:24.790Z,97355.19
2023-04-20T15:46:51.381Z,97353.03
2023-04-20T15:49:20.510Z,97359.06
2023-04-20T15:51:47.670Z,97366.97
2023-04-20T15:54:14.138Z,97360.03
2023-04-20T15:56:40.848Z,97364.25
2023-04-20T15:59:07.378Z,97370.00
2023-04-20T16:01:33.985Z,97362.94
2023-04-20T16:04:00.867Z,97364.41
2023-04-20T16:06:27.475Z,97357.75
2023-04-20T16:08:54.606Z,97368.97
2023-04-20T16:11:21.839Z,97365.16
2023-04-20T16:13:49.388Z,97365.53
2023-04-20T16:16:18.730Z,97365.66
2023-04-20T16:18:45.533Z,97363.94
2023-04-20T16:21:12.171Z,97362.69
2023-04-20T16:23:38.728Z,97368.59
2023-04-20T16:26:05.273Z,97357.84
2023-04-20T16:28:31.838Z,97368.69
2023-04-20T16:30:58.671Z,97367.53
2023-04-20T16:33:25.828Z,97364.16
2023-04-20T16:35:52.398Z,97359.78
2023-04-20T16:38:19.481Z,97369.63
2023-04-20T16:40:46.490Z,97362.59
2023-04-20T16:43:12.941Z,97367.84
2023-04-20T16:45:39.455Z,97366.25
2023-04-20T16:48:06.114Z,97369.63
2023-04-20T16:50:32.740Z,97361.22
2023-04-20T16:52:59.307Z,97368.03
2023-04-20T16:55:26.152Z,97374.22
2023-04-20T16:57:59.620Z,97376.25
2023-04-20T17:00:29.533Z,97372.06
2023-04-20T17:02:56.604Z,97372.00
2023-04-20T17:05:23.545Z,97375.28
2023-04-20T17:07:50.098Z,97372.06
2023-04-20T17:10:16.654Z,97379.38
2023-04-20T17:12:43.282Z,97375.84
2023-04-20T17:15:10.334Z,97376.47
2023-04-20T17:17:37.178Z,97376.69
2023-04-20T17:20:07.438Z,97382.81
2023-04-20T17:22:35.288Z,97376.19
2023-04-20T17:25:01.891Z,97370.13
2023-04-20T17:27:28.421Z,97374.78
2023-04-20T17:29:56.051Z,97384.03
2023-04-20T17:32:23.013Z,97381.16
2023-04-20T17:34:51.552Z,97384.28
2023-04-20T17:37:18.170Z,97390.53
2023-04-20T17:39:44.889Z,97384.50
2023-04-20T17:42:14.358Z,97397.16
2023-04-20T17:44:40.871Z,97381.56
2023-04-20T17:47:09.501Z,97393.50
2023-04-20T17:49:36.587Z,97393.19
2023-04-20T17:52:03.204Z,97400.22
2023-04-20T17:54:29.707Z,97400.78
2023-04-20T17:56:57.986Z,97405.63
2023-04-20T17:59:24.447Z,97410.88
2023-04-20T18:01:51.013Z,97402.16
2023-04-20T18:04:17.958Z,97414.56
2023-04-20T18:06:44.799Z,97405.22
2023-04-20T18:09:14.029Z,97411.28
2023-04-20T18:11:40.690Z,97411.78
2023-04-20T18:14:07.188Z,97409.03
2023-04-20T18:16:33.715Z,97411.09
2023-04-20T18:19:00.283Z,97419.94
2023-04-20T18:21:26.806Z,97422.75
2023-04-20T18:23:55.348Z,97420.34
2023-04-20T18:26:21.784Z,97427.09
2023-04-20T18:28:48.273Z,97417.00
2023-04-20T18:31:14.788Z,97425.56
2023-04-20T18:33:41.287Z,97421.84
2023-04-20T18:36:07.811Z,97426.78
2023-04-20T18:38:35.337Z,97433.16
2023-04-20T18:41:02.185Z,97432.00
2023-04-20T18:43:28.706Z,97434.22
2023-04-20T18:45:55.199Z,97439.69
2023-04-20T18:48:21.654Z,97431.03
2023-04-20T18:50:48.317Z,97434.28
2023-04-20T18:53:14.848Z,97431.19
2023-04-20T18:55:41.618Z,97435.28
2023-04-20T18:58:08.208Z,97432.94
2023-04-20T19:00:34.801Z,97425.81
2023-04-20T19:03:01.516Z,97431.22
2023-04-20T19:05:28.390Z,97424.16
2023-04-20T19:07:54.856Z,97423.84
2023-04-20T19:10:21.328Z,97430.63
2023-04-20T19:12:47.806Z,97426.25
2023-04-20T19:15:14.348Z,97426.25
2023-04-20T19:17:41.902Z,97423.22
2023-04-20T19:20:10.853Z,97427.63
2023-04-20T19:22:37.380Z,97427.63
2023-04-20T19:25:04.745Z,97428.31
2023-04-20T19:27:31.216Z,97427.28
2023-04-20T19:29:57.676Z,97431.00
2023-04-20T19:32:24.410Z,97431.69
2023-04-20T19:34:56.384Z,97436.94
2023-04-20T19:37:23.312Z,97436.72
2023-04-20T19:39:49.955Z,97430.25
2023-04-20T19:42:16.461Z,97438.50
2023-04-20T19:44:42.921Z,97435.22
2023-04-20T19:47:09.765Z,97428.81
2023-04-20T19:49:36.308Z,97435.22
2023-04-20T19:52:02.808Z,97430.88
2023-04-20T19:54:29.265Z,97437.91
2023-04-20T19:56:56.174Z,97434.34
2023-04-20T19:59:22.744Z,97429.38
2023-04-20T20:01:50.761Z,97432.63
2023-04-20T20:04:17.556Z,97436.31
2023-04-20T20:06:48.441Z,97437.78
2023-04-20T20:09:14.882Z,97429.00
2023-04-20T20:11:47.994Z,97438.84
2023-04-20T20:14:15.415Z,97435.31
2023-04-20T20:16:41.885Z,97440.66
2023-04-20T20:19:08.965Z,97433.19
2023-04-20T20:21:35.472Z,97434.94
2023-04-20T20:24:01.964Z,97431.56
2023-04-20T20:26:28.496Z,97429.22
2023-04-20T20:28:54.968Z,97434.31
2023-04-20T20:31:21.674Z,97428.19
2023-04-20T20:33:48.255Z,97435.47
2023-04-20T20:36:17.823Z,97426.91
2023-04-20T20:38:44.465Z,97433.47
2023-04-20T20:41:13.593Z,97436.94
2023-04-20T20:43:43.325Z,97438.78
2023-04-20T20:46:10.128Z,97437.63
2023-04-20T20:48:36.663Z,97441.59
2023-04-20T20:51:03.277Z,97447.84
2023-04-20T20:53:29.794Z,97456.06
2023-04-20T20:55:56.396Z,97454.00
2023-04-20T20:58:22.902Z,97459.72
2023-04-20T21:00:49.505Z,97463.53
2023-04-20T21:03:16.213Z,97456.38
2023-04-20T21:05:42.872Z,97461.91
2023-04-20T21:08:12.919Z,97462.16
2023-04-20T21:10:39.464Z,97471.34
2023-04-20T21:13:06.021Z,97464.97
2023-04-20T21:15:32.907Z,97465.25
2023-04-20T21:17:59.484Z,97469.19
2023-04-20T21:20:26.036Z,97472.66
2023-04-20T21:22:52.594Z,97470.81
2023-04-20T21:25:19.344Z,97474.75
2023-04-20T21:27:45.830Z,97480.75
2023-04-20T21:30:12.658Z,97483.06
2023-04-20T21:32:39.162Z,97475.59
2023-04-20T21:35:06.142Z,97473.91
2023-04-20T21:37:32.612Z,97478.91
2023-04-20T21:39:59.173Z,97473.56
2023-04-20T21:42:25.590Z,97473.66
2023-04-20T21:44:52.068Z,97473.03
2023-04-20T21:47:18.608Z,97482.78
2023-04-20T21:49:45.114Z,97480.09
2023-04-20T21:52:11.671Z,97483.75
2023-04-20T21:54:40.066Z,97487.09
2023-04-20T21:57:06.848Z,97488.91
2023-04-20T21:59:33.391Z,97488.56
2023-04-20T22:02:00.098Z,97490.28
2023-04-20T22:04:27.062Z,97483.78
2023-04-20T22:06:55.371Z,97492.31
2023-04-20T22:09:22.317Z,97496.00
2023-04-20T22:11:49.921Z,97491.06
2023-04-20T22:14:16.940Z,97490.06
2023-04-20T22:16:43.415Z,97487.06
2023-04-20T22:19:09.903Z,97489.91
2023-04-20T22:21:36.418Z,97498.69
2023-04-20T22:24:02.988Z,97490.75
2023-04-20T22:26:29.421Z,97497.97
2023-04-20T22:28:56.083Z,97485.56
2023-04-20T22:31:22.599Z,97491.78
2023-04-20T22:33:49.113Z,97498.81
2023-04-20T22:36:15.677Z,97496.59
2023-04-20T22:38:42.194Z,97501.09
2023-04-20T22:41:08.708Z,97499.72
2023-04-20T22:43:35.230Z,97490.94
2023-04-20T22:46:01.723Z,97493.81
2023-04-20T22:48:28.431Z,97498.00
2023-04-20T22:50:55.336Z,97500.00
2023-04-20T22:53:21.815Z,97504.38
2023-04-20T22:55:48.277Z,97509.03
2023-04-20T22:58:14.759Z,97500.31
2023-04-20T23:00:41.227Z,97499.72
2023-04-20T23:03:07.791Z,97495.09
2023-04-20T23:05:35.307Z,97497.09
2023-04-20T23:08:01.767Z,97494.69
2023-04-20T23:10:31.226Z,97502.03
2023-04-20T23:12:57.717Z,97500.94
2023-04-20T23:15:24.274Z,97499.81
2023-04-20T23:17:50.979Z,97499.84
2023-04-20T23:20:17.554Z,97500.13
2023-04-20T23:22:44.120Z,97501.69
2023-04-20T23:25:10.992Z,97508.47
2023-04-20T23:27:37.472Z,97509.47
2023-04-20T23:30:04.140Z,97505.78
2023-04-20T23:32:30.817Z,97505.34
2023-04-20T23:34:57.345Z,97506.06
2023-04-20T23:37:23.817Z,97506.63
2023-04-20T23:39:50.297Z,97502.06
2023-04-20T23:42:16.777Z,97505.25
2023-04-20T23:44:43.280Z,97508.88
2023-04-20T23:47:09.782Z,97503.22
2023-04-20T23:49:36.269Z,97509.44
2023-04-20T23:52:03.159Z,97502.78
2023-04-20T23:54:30.711Z,97496.44
2023-04-20T23:56:59.188Z,97495.31
2023-04-20T23:59:26.181Z,97492.78
